Time;durP1;ratioP1;P1;durP2;ratioP2;P2;SDS_P1;SDS_P2;PMS_P1;PMS_P2;Temp;Humidity;BMP_temperature;BMP_pressure;BME280_temperature;BME280_humidity;BME280_pressure;Samples;Min_cycle;Max_cycle;Signal;HPM_P1;HPM_P2
2023/05/25 00:01:37;;;;;;;10.45;3.88;;;10.00;99.90;;;;;;4984411;28;20046;-79
2023/05/25 00:04:02;;;;;;;8.73;4.13;;;9.90;99.90;;;;;;5023787;28;20037;-78
2023/05/25 00:06:29;;;;;;;7.38;4.15;;;9.80;99.90;;;;;;5027596;28;20041;-79
2023/05/25 00:08:56;;;;;;;12.52;4.85;;;9.70;99.90;;;;;;5011903;28;20136;-79
2023/05/25 00:11:23;;;;;;;7.25;3.78;;;9.60;99.90;;;;;;5025906;28;20061;-78
2023/05/25 00:13:49;;;;;;;8.13;3.65;;;9.60;99.90;;;;;;5012492;28;20128;-79
2023/05/25 00:16:15;;;;;;;10.40;4.68;;;9.60;99.90;;;;;;5029138;28;20129;-78
2023/05/25 00:18:42;;;;;;;9.50;4.55;;;9.60;99.90;;;;;;5010987;28;20449;-78
2023/05/25 00:21:07;;;;;;;7.93;4.10;;;9.50;99.90;;;;;;5021246;28;20152;-78
2023/05/25 00:23:33;;;;;;;11.13;4.20;;;9.60;99.90;;;;;;5010102;28;20120;-78
2023/05/25 00:26:01;;;;;;;5.70;3.63;;;9.70;99.90;;;;;;5006358;28;20140;-78
2023/05/25 00:28:26;;;;;;;8.85;4.75;;;9.70;99.90;;;;;;5011781;28;20090;-78
2023/05/25 00:30:52;;;;;;;8.18;4.00;;;9.70;99.90;;;;;;5024444;28;20070;-79
2023/05/25 00:33:17;;;;;;;9.13;3.85;;;9.70;99.90;;;;;;5008673;28;20053;-79
2023/05/25 00:35:43;;;;;;;6.32;3.30;;;9.70;99.90;;;;;;5013996;28;20537;-79
2023/05/25 00:38:13;;;;;;;10.07;3.97;;;9.70;99.90;;;;;;5021986;28;20043;-79
2023/05/25 00:40:40;;;;;;;9.18;3.90;;;9.60;99.90;;;;;;5003979;28;20036;-78
2023/05/25 00:43:07;;;;;;;7.70;3.72;;;9.50;99.90;;;;;;4995583;28;20033;-78
2023/05/25 00:45:33;;;;;;;7.40;3.60;;;9.30;99.90;;;;;;5005315;28;20053;-78
2023/05/25 00:47:59;;;;;;;6.88;3.53;;;9.20;99.90;;;;;;4989783;28;20038;-79
2023/05/25 00:50:43;;;;;;;6.78;4.10;;;9.10;99.90;;;;;;5011599;28;20092;-78
2023/05/25 00:53:10;;;;;;;7.57;3.63;;;9.10;99.90;;;;;;5008982;28;20113;-78
2023/05/25 00:55:58;;;;;;;9.25;3.60;;;9.00;99.90;;;;;;5011014;28;20049;-78
2023/05/25 00:58:29;;;;;;;8.10;4.13;;;9.00;99.90;;;;;;5025318;28;20684;-78
2023/05/25 01:00:57;;;;;;;7.47;3.75;;;8.90;99.90;;;;;;5006467;28;20464;-79
2023/05/25 01:03:26;;;;;;;6.00;3.78;;;8.90;99.90;;;;;;4994988;28;20583;-79
2023/05/25 01:05:54;;;;;;;9.63;4.68;;;8.90;99.90;;;;;;5019458;28;20081;-78
2023/05/25 01:08:22;;;;;;;7.20;4.10;;;8.90;99.90;;;;;;5024456;28;20076;-77
2023/05/25 01:10:49;;;;;;;7.05;4.32;;;8.90;99.90;;;;;;5011533;28;20042;-78
2023/05/25 01:13:17;;;;;;;7.68;4.20;;;8.90;99.90;;;;;;5011452;28;20516;-78
2023/05/25 01:15:45;;;;;;;8.45;3.95;;;9.00;99.90;;;;;;5012615;28;20037;-78
2023/05/25 01:18:16;;;;;;;6.25;4.00;;;9.00;99.90;;;;;;5029687;28;20088;-78
2023/05/25 01:20:55;;;;;;;7.38;3.95;;;9.10;99.90;;;;;;5009321;28;20049;-78
2023/05/25 01:23:27;;;;;;;11.65;4.95;;;9.10;99.90;;;;;;5013282;28;20039;-78
2023/05/25 01:25:56;;;;;;;9.52;4.63;;;9.20;99.90;;;;;;5010828;28;20050;-78
2023/05/25 01:28:27;;;;;;;5.90;3.63;;;9.20;99.90;;;;;;5029392;28;20117;-78
2023/05/25 01:30:56;;;;;;;8.10;4.63;;;9.20;99.90;;;;;;5020882;28;20046;-79
2023/05/25 01:33:22;;;;;;;10.02;4.40;;;9.20;99.90;;;;;;5019914;28;20042;-78
2023/05/25 01:35:48;;;;;;;8.15;4.60;;;9.20;99.90;;;;;;5011269;28;20038;-78
2023/05/25 01:38:14;;;;;;;6.47;3.58;;;9.20;99.90;;;;;;5005829;28;20056;-78
2023/05/25 01:40:39;;;;;;;8.38;4.35;;;9.30;99.90;;;;;;4995023;28;20056;-78
2023/05/25 01:43:05;;;;;;;8.10;3.85;;;9.20;99.90;;;;;;5008391;28;20489;-78
2023/05/25 01:45:31;;;;;;;6.97;4.07;;;9.20;99.90;;;;;;5005476;28;20033;-78
2023/05/25 01:48:22;;;;;;;7.32;3.85;;;9.20;99.90;;;;;;5032020;28;20057;-78
2023/05/25 01:50:56;;;;;;;7.95;3.70;;;9.20;99.90;;;;;;5006932;28;20116;-78
2023/05/25 01:53:32;;;;;;;5.35;3.00;;;9.20;99.90;;;;;;5015198;28;20076;-78
2023/05/25 01:56:02;;;;;;;7.45;3.85;;;9.20;99.90;;;;;;5033480;28;20096;-78
2023/05/25 01:58:33;;;;;;;6.53;3.30;;;9.10;99.90;;;;;;5015245;28;20667;-78
2023/05/25 02:00:59;;;;;;;7.20;3.72;;;9.00;99.90;;;;;;5032135;28;20171;-78
2023/05/25 02:03:26;;;;;;;6.97;3.90;;;9.00;99.90;;;;;;5012888;28;20091;-78
2023/05/25 02:05:52;;;;;;;11.25;4.95;;;9.00;99.90;;;;;;5009865;28;20509;-78
2023/05/25 02:08:19;;;;;;;7.97;4.13;;;9.00;99.90;;;;;;5014619;28;20524;-78
2023/05/25 02:10:45;;;;;;;7.47;3.92;;;9.00;99.90;;;;;;5029468;28;20037;-78
2023/05/25 02:13:10;;;;;;;7.07;3.97;;;9.00;99.90;;;;;;5014547;28;20041;-78
2023/05/25 02:15:36;;;;;;;8.25;4.15;;;9.00;99.90;;;;;;5029025;28;20046;-78
2023/05/25 02:18:04;;;;;;;7.32;4.00;;;9.00;99.90;;;;;;5007156;28;20117;-78
2023/05/25 02:20:30;;;;;;;6.68;3.78;;;8.90;99.90;;;;;;5025822;28;20060;-78
2023/05/25 02:22:56;;;;;;;11.48;4.50;;;8.90;99.90;;;;;;5022895;28;20444;-78
2023/05/25 02:25:21;;;;;;;9.15;4.40;;;8.90;99.90;;;;;;5030804;28;20032;-79
2023/05/25 02:27:47;;;;;;;7.97;4.53;;;8.90;99.90;;;;;;5006696;28;20060;-78
2023/05/25 02:30:13;;;;;;;6.72;4.30;;;8.90;99.90;;;;;;5005905;28;20547;-78
2023/05/25 02:32:39;;;;;;;6.63;4.35;;;8.80;99.90;;;;;;5011220;28;20068;-79
2023/05/25 02:35:05;;;;;;;8.45;4.45;;;8.70;99.90;;;;;;5008390;28;20046;-78
2023/05/25 02:37:31;;;;;;;8.55;4.85;;;8.70;99.90;;;;;;5007312;28;20037;-78
2023/05/25 02:39:56;;;;;;;8.80;4.28;;;8.70;99.90;;;;;;5008622;28;20050;-78
2023/05/25 02:42:22;;;;;;;11.70;4.70;;;8.80;99.90;;;;;;5017905;28;20064;-78
2023/05/25 02:44:47;;;;;;;9.05;4.30;;;8.80;99.90;;;;;;5013903;28;20120;-78
2023/05/25 02:47:14;;;;;;;11.75;4.57;;;8.70;99.90;;;;;;5009291;28;20096;-78
2023/05/25 02:49:40;;;;;;;8.75;4.28;;;8.70;99.90;;;;;;5025853;28;20529;-79
2023/05/25 02:52:06;;;;;;;6.68;4.30;;;8.70;99.90;;;;;;5004196;28;20046;-78
2023/05/25 02:54:31;;;;;;;8.48;4.50;;;8.70;99.90;;;;;;5015848;28;20041;-78
2023/05/25 02:56:57;;;;;;;9.60;5.10;;;8.70;99.90;;;;;;5005027;28;20107;-78
2023/05/25 02:59:23;;;;;;;6.57;3.75;;;8.70;99.90;;;;;;5011727;28;20120;-79
2023/05/25 03:01:49;;;;;;;8.73;4.60;;;8.60;99.90;;;;;;5022980;28;20076;-79
2023/05/25 03:04:15;;;;;;;5.55;3.88;;;8.60;99.90;;;;;;5004523;28;20462;-79
2023/05/25 03:06:41;;;;;;;7.55;4.45;;;8.40;99.90;;;;;;5031744;28;20050;-79
2023/05/25 03:09:07;;;;;;;6.28;4.32;;;8.30;99.90;;;;;;5029809;28;20033;-79
2023/05/25 03:11:33;;;;;;;7.72;4.20;;;8.30;99.90;;;;;;5011310;28;20461;-78
2023/05/25 03:13:58;;;;;;;7.40;4.47;;;8.30;99.90;;;;;;5029730;28;20049;-79
2023/05/25 03:16:24;;;;;;;8.02;4.53;;;8.30;99.90;;;;;;5030614;28;20037;-79
2023/05/25 03:18:50;;;;;;;6.68;3.90;;;8.20;99.90;;;;;;5005920;28;20048;-79
2023/05/25 03:21:15;;;;;;;5.43;4.00;;;8.10;99.90;;;;;;5010460;28;20053;-79
2023/05/25 03:23:41;;;;;;;7.88;4.35;;;8.10;99.90;;;;;;5012055;28;20947;-79
2023/05/25 03:26:06;;;;;;;7.60;4.15;;;8.10;99.90;;;;;;5023957;28;20338;-79
2023/05/25 03:28:32;;;;;;;8.48;4.25;;;8.10;99.90;;;;;;5010761;28;20128;-78
2023/05/25 03:30:58;;;;;;;7.65;4.18;;;8.10;99.90;;;;;;5006944;28;20041;-79
2023/05/25 03:33:23;;;;;;;8.45;4.47;;;8.20;99.90;;;;;;5011540;28;20513;-79
2023/05/25 03:35:49;;;;;;;8.60;4.60;;;8.30;99.90;;;;;;5010701;28;20551;-79
2023/05/25 03:38:15;;;;;;;9.13;4.47;;;8.30;99.90;;;;;;5012019;28;20508;-79
2023/05/25 03:40:40;;;;;;;8.30;3.95;;;8.30;99.90;;;;;;5029464;28;20128;-79
2023/05/25 03:43:06;;;;;;;7.93;4.28;;;8.40;99.90;;;;;;5008705;28;20033;-79
2023/05/25 03:45:31;;;;;;;10.15;4.15;;;8.20;99.90;;;;;;5024918;28;20037;-79
2023/05/25 03:47:57;;;;;;;10.98;4.50;;;8.20;99.90;;;;;;5030753;28;20037;-79
2023/05/25 03:50:22;;;;;;;9.65;4.38;;;8.10;99.90;;;;;;5012228;28;20465;-79
2023/05/25 03:52:48;;;;;;;8.85;4.38;;;8.00;99.90;;;;;;5000754;28;20097;-79
2023/05/25 03:55:14;;;;;;;8.02;4.70;;;8.00;99.90;;;;;;5006037;28;20044;-79
2023/05/25 03:57:40;;;;;;;7.43;4.32;;;8.00;99.90;;;;;;5009635;28;20053;-79
2023/05/25 04:00:08;;;;;;;7.80;4.28;;;8.00;99.90;;;;;;5030336;28;20045;-78
2023/05/25 04:02:34;;;;;;;11.60;4.82;;;8.10;99.90;;;;;;5031420;28;20073;-78
2023/05/25 04:04:59;;;;;;;9.10;4.40;;;8.10;99.90;;;;;;5010964;28;20468;-78
2023/05/25 04:07:26;;;;;;;9.40;5.53;;;8.10;99.90;;;;;;5005720;28;20060;-78
2023/05/25 04:09:52;;;;;;;9.55;5.18;;;8.10;99.90;;;;;;5011419;28;20053;-78
2023/05/25 04:12:17;;;;;;;9.80;5.10;;;8.20;99.90;;;;;;5008314;28;20053;-79
2023/05/25 04:14:43;;;;;;;9.57;5.32;;;8.20;99.90;;;;;;5007971;28;20516;-79
2023/05/25 04:17:08;;;;;;;9.68;4.72;;;8.30;99.90;;;;;;5015761;28;20156;-79
2023/05/25 04:19:34;;;;;;;9.80;5.82;;;8.30;99.90;;;;;;5007169;28;20049;-78
2023/05/25 04:22:00;;;;;;;7.22;4.90;;;8.40;99.90;;;;;;5005795;28;20548;-79
2023/05/25 04:24:26;;;;;;;12.85;5.18;;;8.50;99.90;;;;;;5009071;28;20049;-79
2023/05/25 04:26:52;;;;;;;9.60;5.90;;;8.60;99.90;;;;;;5001325;28;20064;-79
2023/05/25 04:29:17;;;;;;;11.18;5.95;;;8.70;99.90;;;;;;5007213;28;20493;-79
2023/05/25 04:31:44;;;;;;;11.57;5.72;;;8.90;99.90;;;;;;4999352;28;20045;-79
2023/05/25 04:34:10;;;;;;;12.93;6.53;;;8.80;99.90;;;;;;5012263;28;20053;-79
2023/05/25 04:36:37;;;;;;;13.60;6.07;;;8.90;99.90;;;;;;5002679;28;20523;-78
2023/05/25 04:39:06;;;;;;;14.80;6.32;;;9.00;99.90;;;;;;5007958;28;20485;-79
2023/05/25 04:41:32;;;;;;;12.85;6.22;;;9.10;99.90;;;;;;5030161;28;20112;-79
2023/05/25 04:43:58;;;;;;;12.43;6.15;;;9.10;99.90;;;;;;5011892;28;20057;-78
2023/05/25 04:46:24;;;;;;;13.55;6.05;;;9.20;99.90;;;;;;5007704;28;20152;-79
2023/05/25 04:48:49;;;;;;;13.70;6.63;;;9.30;99.90;;;;;;5021765;28;20045;-78
2023/05/25 04:51:15;;;;;;;15.65;7.40;;;9.40;99.90;;;;;;5007312;28;20122;-78
2023/05/25 04:53:41;;;;;;;13.55;6.80;;;9.50;99.90;;;;;;5015312;28;20033;-78
2023/05/25 04:56:06;;;;;;;13.85;7.15;;;9.60;99.90;;;;;;5015390;28;20045;-78
2023/05/25 04:58:32;;;;;;;15.90;6.75;;;9.80;99.90;;;;;;5010386;28;20037;-78
2023/05/25 05:00:58;;;;;;;15.73;7.45;;;9.90;99.90;;;;;;5014225;28;20052;-78
2023/05/25 05:03:23;;;;;;;15.43;6.90;;;10.00;99.90;;;;;;5010211;28;20030;-78
2023/05/25 05:05:49;;;;;;;11.57;6.88;;;10.20;99.90;;;;;;5016547;28;20076;-78
2023/05/25 05:08:15;;;;;;;18.40;7.82;;;10.30;99.90;;;;;;5030102;28;20046;-78
2023/05/25 05:10:40;;;;;;;14.15;7.38;;;10.40;99.90;;;;;;5015026;28;20694;-78
2023/05/25 05:13:06;;;;;;;13.60;7.60;;;10.50;99.90;;;;;;5013692;28;20030;-78
2023/05/25 05:15:31;;;;;;;13.77;7.15;;;10.60;99.90;;;;;;5015930;28;20037;-79
2023/05/25 05:17:58;;;;;;;17.35;8.30;;;10.70;99.90;;;;;;5013722;28;20060;-78
2023/05/25 05:20:23;;;;;;;14.95;7.88;;;10.70;99.90;;;;;;5013946;28;20049;-78
2023/05/25 05:22:49;;;;;;;14.75;8.25;;;10.70;99.90;;;;;;5000102;28;20045;-78
2023/05/25 05:25:14;;;;;;;14.85;7.50;;;10.80;99.90;;;;;;5013291;28;20040;-78
2023/05/25 05:27:40;;;;;;;11.25;7.18;;;10.90;99.90;;;;;;4997578;28;20412;-77
2023/05/25 05:30:06;;;;;;;13.43;7.75;;;10.90;99.90;;;;;;5023929;28;20091;-78
2023/05/25 05:32:32;;;;;;;15.93;8.27;;;11.00;99.90;;;;;;5013507;28;20512;-78
2023/05/25 05:34:57;;;;;;;15.13;7.85;;;11.10;99.90;;;;;;5031459;28;20072;-78
2023/05/25 05:37:23;;;;;;;16.50;7.72;;;11.20;99.90;;;;;;5014052;28;20045;-78
2023/05/25 05:39:51;;;;;;;13.75;7.38;;;11.20;99.90;;;;;;5010239;28;20528;-78
2023/05/25 05:42:16;;;;;;;12.98;7.38;;;11.30;99.90;;;;;;5029448;28;20052;-77
2023/05/25 05:44:42;;;;;;;13.35;7.20;;;11.30;99.90;;;;;;5009741;28;20029;-78
2023/05/25 05:47:07;;;;;;;17.02;7.63;;;11.30;99.90;;;;;;5014433;28;20041;-78
2023/05/25 05:49:33;;;;;;;16.45;8.00;;;11.40;99.90;;;;;;5030727;28;20112;-78
2023/05/25 05:51:59;;;;;;;17.20;7.18;;;11.50;99.90;;;;;;5012528;28;20045;-78
2023/05/25 05:54:26;;;;;;;13.38;7.28;;;11.50;99.90;;;;;;5005374;28;20037;-78
2023/05/25 05:56:52;;;;;;;14.40;7.47;;;11.60;99.90;;;;;;5008791;28;20058;-78
2023/05/25 05:59:20;;;;;;;19.65;7.57;;;11.60;99.90;;;;;;5012920;28;20504;-78
2023/05/25 06:01:45;;;;;;;14.35;7.72;;;11.90;99.90;;;;;;5011935;28;20046;-78
2023/05/25 06:04:11;;;;;;;18.73;7.65;;;12.00;99.90;;;;;;5012802;28;21165;-78
2023/05/25 06:06:39;;;;;;;20.27;7.97;;;12.10;99.90;;;;;;5011359;28;20053;-78
2023/05/25 06:09:05;;;;;;;15.95;6.93;;;12.20;99.90;;;;;;5024676;28;20391;-77
2023/05/25 06:11:34;;;;;;;13.90;6.50;;;12.20;99.90;;;;;;5006111;28;20045;-78
2023/05/25 06:14:00;;;;;;;14.05;6.53;;;12.30;99.90;;;;;;5025281;28;20056;-78
2023/05/25 06:16:25;;;;;;;19.45;6.60;;;12.40;99.90;;;;;;5005766;28;20064;-79
2023/05/25 06:18:51;;;;;;;15.13;6.80;;;12.40;99.90;;;;;;5012802;28;20084;-79
2023/05/25 06:21:16;;;;;;;14.23;5.03;;;12.50;99.90;;;;;;5001936;28;20040;-79
2023/05/25 06:23:42;;;;;;;10.82;4.03;;;12.60;99.90;;;;;;4990891;28;20101;-79
2023/05/25 06:26:08;;;;;;;13.80;4.18;;;12.60;99.90;;;;;;5010328;28;20052;-79
2023/05/25 06:28:33;;;;;;;12.05;3.95;;;12.70;99.90;;;;;;5025020;28;20033;-79
2023/05/25 06:30:59;;;;;;;9.73;3.58;;;12.80;99.90;;;;;;5006969;28;20041;-77
2023/05/25 06:33:24;;;;;;;12.18;3.65;;;12.90;99.90;;;;;;5005312;28;20029;-78
2023/05/25 06:35:51;;;;;;;18.50;3.67;;;13.00;99.90;;;;;;5007588;28;20037;-79
2023/05/25 06:38:17;;;;;;;10.73;3.08;;;13.20;99.90;;;;;;5011801;28;20049;-81
2023/05/25 06:40:42;;;;;;;13.40;3.33;;;13.30;99.90;;;;;;5027173;28;20097;-79
2023/05/25 06:43:08;;;;;;;12.73;2.85;;;13.30;99.90;;;;;;5026373;28;20041;-79
2023/05/25 06:45:33;;;;;;;12.75;3.05;;;13.50;99.90;;;;;;5012701;28;20041;-79
2023/05/25 06:47:59;;;;;;;11.90;2.95;;;13.50;99.90;;;;;;5014006;28;20050;-79
2023/05/25 06:50:24;;;;;;;13.27;3.03;;;13.50;99.90;;;;;;5026176;28;20048;-80
2023/05/25 06:52:50;;;;;;;10.18;3.47;;;13.60;99.90;;;;;;5012874;28;20035;-80
2023/05/25 06:55:15;;;;;;;11.15;3.30;;;13.60;99.90;;;;;;5012050;28;20485;-81
2023/05/25 06:57:42;;;;;;;16.25;3.65;;;13.60;99.90;;;;;;5007080;28;20092;-80
2023/05/25 07:00:11;;;;;;;13.50;3.30;;;13.60;99.90;;;;;;5011775;28;20125;-81
2023/05/25 07:02:38;;;;;;;12.57;3.40;;;13.70;99.90;;;;;;5014546;28;20055;-80
2023/05/25 07:05:04;;;;;;;13.50;3.20;;;13.80;99.90;;;;;;5015723;28;20049;-80
2023/05/25 07:07:30;;;;;;;12.45;3.42;;;14.00;99.90;;;;;;5013604;28;20136;-82
2023/05/25 07:09:56;;;;;;;13.52;3.72;;;14.30;99.90;;;;;;5015797;28;20045;-83
2023/05/25 07:12:22;;;;;;;11.65;3.40;;;14.30;99.90;;;;;;5005766;28;20049;-79
2023/05/25 07:14:47;;;;;;;15.18;3.63;;;14.40;99.90;;;;;;5023887;28;20409;-82
2023/05/25 07:17:16;;;;;;;12.13;3.70;;;14.40;99.90;;;;;;5013572;28;20042;-80
2023/05/25 07:19:42;;;;;;;12.90;3.55;;;14.30;99.90;;;;;;5028132;28;20038;-80
2023/05/25 07:22:11;;;;;;;15.48;3.75;;;14.20;99.90;;;;;;5014764;28;20124;-81
2023/05/25 07:24:36;;;;;;;14.68;3.83;;;14.30;99.90;;;;;;5014743;28;20041;-79
2023/05/25 07:27:02;;;;;;;16.48;3.90;;;14.60;99.90;;;;;;5011214;28;20045;-83
2023/05/25 07:29:28;;;;;;;19.75;4.10;;;14.80;99.90;;;;;;5012482;28;20045;-79
2023/05/25 07:31:54;;;;;;;16.23;3.65;;;15.10;99.90;;;;;;5010435;28;20402;-81
2023/05/25 07:34:19;;;;;;;17.30;4.50;;;15.20;99.90;;;;;;5009576;28;20072;-81
2023/05/25 07:36:45;;;;;;;16.58;4.15;;;15.30;99.90;;;;;;5007755;28;20053;-81
2023/05/25 07:39:11;;;;;;;16.58;4.28;;;15.50;99.90;;;;;;5016424;28;20578;-81
2023/05/25 07:41:37;;;;;;;19.63;3.92;;;15.50;99.90;;;;;;5028851;28;20410;-82
2023/05/25 07:44:03;;;;;;;13.00;3.75;;;15.30;99.90;;;;;;5010114;28;20029;-82
2023/05/25 07:46:29;;;;;;;17.98;4.07;;;15.50;99.90;;;;;;5028512;28;20053;-83
2023/05/25 07:48:56;;;;;;;18.98;4.30;;;15.60;99.90;;;;;;5025048;28;20060;-81
2023/05/25 07:51:24;;;;;;;16.83;4.10;;;15.60;99.90;;;;;;5010750;28;20072;-82
2023/05/25 07:53:51;;;;;;;18.50;4.15;;;15.70;99.90;;;;;;5005429;28;20041;-81
2023/05/25 07:56:16;;;;;;;17.65;4.20;;;15.80;99.90;;;;;;5012555;28;20100;-81
2023/05/25 07:58:42;;;;;;;19.00;4.03;;;16.00;99.90;;;;;;5012337;28;20117;-82
2023/05/25 08:01:07;;;;;;;21.55;4.78;;;16.20;99.90;;;;;;5009778;28;20073;-84
2023/05/25 08:03:33;;;;;;;22.27;4.93;;;15.70;99.90;;;;;;4994858;28;20033;-83
2023/05/25 08:05:58;;;;;;;19.63;5.13;;;15.40;99.90;;;;;;4998978;28;20049;-81
2023/05/25 08:08:24;;;;;;;19.08;4.28;;;15.40;99.90;;;;;;5031843;28;20565;-81
2023/05/25 08:10:50;;;;;;;19.83;4.20;;;15.60;99.90;;;;;;5030172;28;20025;-82
2023/05/25 08:13:15;;;;;;;17.88;4.32;;;15.70;99.90;;;;;;5012457;28;20045;-81
2023/05/25 08:15:41;;;;;;;17.67;3.60;;;16.00;99.90;;;;;;5014597;28;20405;-82
2023/05/25 08:18:06;;;;;;;21.75;4.50;;;15.90;99.90;;;;;;5009167;28;21735;-82
2023/05/25 08:20:32;;;;;;;15.57;4.07;;;15.90;99.90;;;;;;5004769;28;20401;-83
2023/05/25 08:22:58;;;;;;;22.38;5.30;;;15.90;99.90;;;;;;5021621;28;20127;-82
2023/05/25 08:25:23;;;;;;;16.30;4.50;;;16.10;99.90;;;;;;5017492;28;20382;-85
2023/05/25 08:27:49;;;;;;;19.05;4.90;;;16.00;99.90;;;;;;5020146;28;20091;-84
2023/05/25 08:30:15;;;;;;;20.63;4.60;;;16.30;99.90;;;;;;5034677;28;20091;-84
2023/05/25 08:32:41;;;;;;;22.40;4.95;;;16.30;99.90;;;;;;5003994;28;20037;-83
2023/05/25 08:35:06;;;;;;;20.05;4.18;;;16.10;99.90;;;;;;5020676;28;20045;-83
2023/05/25 08:37:33;;;;;;;19.48;4.68;;;15.80;99.90;;;;;;4997936;28;20085;-83
2023/05/25 08:40:01;;;;;;;14.63;4.03;;;15.80;99.90;;;;;;5016057;28;20042;-82
2023/05/25 08:42:27;;;;;;;19.23;4.60;;;16.10;99.90;;;;;;5019237;28;20109;-83
2023/05/25 08:44:53;;;;;;;20.20;4.07;;;16.50;99.90;;;;;;5016102;28;20034;-80
2023/05/25 08:47:21;;;;;;;20.55;4.18;;;16.50;99.90;;;;;;5003026;28;20115;-84
2023/05/25 08:49:48;;;;;;;14.35;3.90;;;16.50;99.90;;;;;;5005873;28;20045;-81
2023/05/25 08:52:18;;;;;;;16.98;3.97;;;16.00;99.90;;;;;;5012178;28;20053;-84
2023/05/25 08:54:46;;;;;;;16.67;3.47;;;16.20;99.90;;;;;;5014120;28;20509;-82
2023/05/25 08:57:51;;;;;;;17.70;4.25;;;16.30;99.90;;;;;;5016193;28;20512;-83
2023/05/25 09:00:19;;;;;;;;;;;16.40;99.90;;;;;;5025318;28;20050;-84
2023/05/25 09:02:53;;;;;;;16.40;3.50;;;16.10;99.90;;;;;;4998534;28;19956;-82
2023/05/25 09:05:19;;;;;;;18.02;4.15;;;16.20;99.90;;;;;;5017034;28;20046;-84
2023/05/25 09:07:46;;;;;;;18.73;3.88;;;16.30;99.90;;;;;;5008138;28;20073;-84
2023/05/25 09:10:13;;;;;;;17.65;4.03;;;16.00;99.90;;;;;;5010647;28;20080;-84
2023/05/25 09:12:39;;;;;;;17.83;4.35;;;15.90;99.90;;;;;;5012433;28;20045;-82
2023/05/25 09:15:09;;;;;;;19.65;4.40;;;15.80;99.90;;;;;;5019838;28;20049;-83
2023/05/25 09:17:34;;;;;;;16.45;3.92;;;15.90;99.90;;;;;;5027252;28;20076;-83
2023/05/25 09:20:00;;;;;;;14.32;3.63;;;15.90;99.90;;;;;;5017097;28;20037;-83
2023/05/25 09:22:26;;;;;;;20.15;4.60;;;15.70;99.90;;;;;;5038084;28;20124;-83
2023/05/25 09:24:52;;;;;;;17.95;4.47;;;15.80;99.90;;;;;;4999245;28;20513;-83
2023/05/25 09:27:21;;;;;;;19.35;3.92;;;15.70;99.90;;;;;;5038645;28;20045;-82
2023/05/25 09:29:48;;;;;;;19.05;4.30;;;15.60;99.90;;;;;;5038792;28;20048;-83
2023/05/25 09:32:14;;;;;;;13.57;3.95;;;15.90;99.90;;;;;;5020088;28;20029;-82
2023/05/25 09:34:42;;;;;;;19.33;4.10;;;15.80;99.90;;;;;;5020718;28;20033;-83
2023/05/25 09:37:12;;;;;;;17.10;3.85;;;16.10;99.90;;;;;;5035723;28;20046;-84
2023/05/25 09:39:40;;;;;;;16.85;4.05;;;16.30;99.90;;;;;;5032419;28;20033;-83
2023/05/25 09:42:06;;;;;;;17.25;3.80;;;16.10;99.90;;;;;;5012368;28;20045;-83
2023/05/25 09:44:31;;;;;;;16.67;4.32;;;15.80;99.90;;;;;;5016408;28;20170;-83
2023/05/25 09:46:57;;;;;;;18.33;4.13;;;15.80;99.90;;;;;;5016058;28;20049;-81
2023/05/25 09:49:22;;;;;;;17.05;4.20;;;16.10;99.90;;;;;;5017945;28;20132;-77
2023/05/25 09:51:48;;;;;;;14.60;3.20;;;16.40;99.90;;;;;;5017479;28;20309;-80
2023/05/25 09:54:14;;;;;;;17.15;3.90;;;16.60;99.90;;;;;;5000305;28;20076;-81
2023/05/25 09:56:40;;;;;;;19.48;4.47;;;16.90;99.90;;;;;;5035416;28;20080;-78
2023/05/25 09:59:06;;;;;;;19.20;3.85;;;17.20;99.90;;;;;;4997468;28;20052;-82
2023/05/25 10:01:33;;;;;;;18.27;4.20;;;16.90;99.90;;;;;;5033506;28;20053;-81
2023/05/25 10:04:00;;;;;;;20.70;4.15;;;16.80;99.90;;;;;;5011182;28;20073;-83
2023/05/25 10:06:26;;;;;;;15.93;3.67;;;16.70;99.90;;;;;;5016987;28;20405;-82
2023/05/25 10:08:56;;;;;;;19.70;4.35;;;16.80;99.90;;;;;;5019195;28;20041;-84
2023/05/25 10:11:23;;;;;;;20.25;4.45;;;16.70;99.90;;;;;;5016498;28;20144;-82
2023/05/25 10:13:51;;;;;;;21.25;4.60;;;16.70;99.90;;;;;;5029034;28;20046;-78
2023/05/25 10:16:17;;;;;;;18.08;4.15;;;16.80;99.90;;;;;;5027721;28;20428;-80
2023/05/25 10:18:53;;;;;;;19.95;4.18;;;17.00;99.90;;;;;;5013636;28;20461;-81
2023/05/25 10:21:21;;;;;;;25.98;4.75;;;17.10;99.90;;;;;;4999180;28;20041;-79
2023/05/25 10:23:51;;;;;;;19.63;4.53;;;16.80;99.90;;;;;;4990961;28;20040;-79
2023/05/25 10:26:22;;;;;;;16.92;3.75;;;16.80;99.90;;;;;;5014335;28;20124;-80
2023/05/25 10:28:55;;;;;;;21.52;5.68;;;16.60;99.90;;;;;;5008419;28;20045;-78
2023/05/25 10:31:21;;;;;;;14.05;3.85;;;16.80;99.90;;;;;;5009322;28;20125;-79
2023/05/25 10:33:47;;;;;;;20.88;4.68;;;17.00;99.90;;;;;;5015228;28;20077;-79
2023/05/25 10:36:13;;;;;;;18.70;4.30;;;17.30;99.90;;;;;;5006407;28;20045;-78
2023/05/25 10:38:40;;;;;;;19.70;4.30;;;17.40;99.90;;;;;;5015015;28;20045;-79
2023/05/25 10:41:08;;;;;;;21.42;4.68;;;17.40;99.90;;;;;;5015376;28;20056;-79
2023/05/25 10:43:34;;;;;;;19.40;4.30;;;17.40;99.90;;;;;;5028812;28;20040;-77
2023/05/25 10:46:00;;;;;;;14.73;3.85;;;17.30;99.90;;;;;;4993783;28;20042;-78
2023/05/25 10:48:43;;;;;;;18.95;4.57;;;17.40;99.90;;;;;;5007537;28;20065;-78
2023/05/25 10:51:09;;;;;;;22.85;4.57;;;17.40;99.90;;;;;;5027921;28;20417;-78
2023/05/25 10:53:35;;;;;;;24.15;4.65;;;17.30;99.90;;;;;;5013428;28;20045;-75
2023/05/25 10:56:08;;;;;;;16.67;4.35;;;17.30;99.90;;;;;;4998635;28;20053;-78
2023/05/25 10:58:34;;;;;;;;;;;17.60;99.90;;;;;;5003715;28;20399;-77
2023/05/25 11:01:07;;;;;;;17.08;4.25;;;17.90;99.90;;;;;;5025043;28;19944;-77
2023/05/25 11:03:52;;;;;;;24.17;4.28;;;18.30;99.90;;;;;;5022752;28;20041;-79
2023/05/25 11:06:22;;;;;;;15.73;4.35;;;18.60;99.90;;;;;;5012519;28;20052;-77
2023/05/25 11:08:57;;;;;;;18.73;4.53;;;18.30;99.90;;;;;;5006757;28;20052;-78
2023/05/25 11:11:41;;;;;;;22.10;4.20;;;18.20;99.90;;;;;;5025727;28;21882;-78
2023/05/25 11:14:20;;;;;;;17.48;4.38;;;17.70;99.90;;;;;;5011176;28;20693;-77
2023/05/25 11:17:17;;;;;;;22.42;4.43;;;17.70;99.90;;;;;;5013330;28;20042;-77
2023/05/25 11:19:51;;;;;;;18.38;4.38;;;17.50;99.90;;;;;;5009257;28;20179;-75
2023/05/25 11:22:20;;;;;;;;;;;17.70;99.90;;;;;;5010306;28;20125;-76
2023/05/25 11:24:50;;;;;;;25.63;4.93;;;17.80;99.90;;;;;;5012420;28;19944;-76
2023/05/25 11:27:29;;;;;;;21.67;4.10;;;17.70;99.90;;;;;;5030700;28;20091;-80
2023/05/25 11:29:56;;;;;;;16.42;3.63;;;17.90;99.90;;;;;;5010265;28;20038;-76
2023/05/25 11:32:24;;;;;;;17.58;4.18;;;18.10;99.90;;;;;;5011908;28;20442;-76
2023/05/25 11:34:56;;;;;;;14.48;4.35;;;18.00;99.90;;;;;;5012289;28;20053;-76
2023/05/25 11:37:27;;;;;;;11.90;4.00;;;18.80;99.90;;;;;;5029668;28;20437;-77
2023/05/25 11:39:53;;;;;;;19.25;4.35;;;19.00;99.90;;;;;;5011814;28;20057;-76
2023/05/25 11:42:21;;;;;;;18.33;4.35;;;19.50;99.90;;;;;;5014512;28;20110;-76
2023/05/25 11:44:46;;;;;;;20.60;4.97;;;19.30;99.90;;;;;;4996511;28;20098;-76
2023/05/25 11:47:13;;;;;;;17.15;4.20;;;19.10;99.90;;;;;;5013440;28;20049;-76
2023/05/25 11:49:45;;;;;;;17.90;4.22;;;18.80;99.90;;;;;;5014332;28;20441;-76
2023/05/25 11:52:13;;;;;;;21.67;4.53;;;18.10;99.90;;;;;;5014191;28;20401;-76
2023/05/25 11:54:42;;;;;;;19.95;4.45;;;17.70;99.90;;;;;;5013651;28;20051;-76
2023/05/25 11:57:24;;;;;;;17.77;4.53;;;17.90;99.90;;;;;;5013881;28;20534;-76
2023/05/25 11:59:56;;;;;;;14.35;4.38;;;17.80;99.90;;;;;;5011511;28;20045;-76
2023/05/25 12:02:22;;;;;;;17.83;4.03;;;18.30;99.90;;;;;;5030846;28;20034;-76
2023/05/25 12:04:54;;;;;;;15.10;3.80;;;18.60;99.90;;;;;;5031362;28;20053;-76
2023/05/25 12:07:20;;;;;;;17.67;3.78;;;18.70;99.90;;;;;;5031379;28;20045;-76
2023/05/25 12:09:46;;;;;;;15.27;4.35;;;18.70;99.90;;;;;;5013265;28;20049;-75
2023/05/25 12:12:12;;;;;;;15.27;3.88;;;19.30;99.90;;;;;;5031272;28;20412;-74
2023/05/25 12:14:50;;;;;;;18.73;4.05;;;19.60;99.90;;;;;;5013496;28;20084;-75
2023/05/25 12:17:17;;;;;;;20.00;4.40;;;19.30;99.90;;;;;;5013615;28;20457;-75
2023/05/25 12:19:43;;;;;;;13.52;3.63;;;19.60;99.90;;;;;;5013251;28;20064;-76
2023/05/25 12:22:10;;;;;;;17.13;4.28;;;19.50;99.90;;;;;;5031091;28;20081;-75
2023/05/25 12:24:36;;;;;;;14.55;3.90;;;19.60;99.90;;;;;;5031111;28;20043;-75
2023/05/25 12:27:04;;;;;;;15.05;3.40;;;18.90;99.90;;;;;;5013519;28;20120;-75
2023/05/25 12:29:30;;;;;;;16.25;3.90;;;19.20;99.90;;;;;;5012953;28;20493;-75
2023/05/25 12:32:03;;;;;;;16.20;4.55;;;19.20;99.90;;;;;;5013553;28;20091;-76
2023/05/25 12:34:28;;;;;;;15.32;3.97;;;18.70;99.90;;;;;;5013207;28;20235;-76
2023/05/25 12:36:55;;;;;;;15.63;4.43;;;19.10;99.90;;;;;;5013024;28;20549;-74
2023/05/25 12:39:29;;;;;;;15.80;4.07;;;19.30;99.90;;;;;;5030719;28;20504;-76
2023/05/25 12:41:57;;;;;;;14.10;3.75;;;19.20;99.90;;;;;;5013368;28;20092;-76
2023/05/25 12:44:32;;;;;;;15.80;4.68;;;19.20;99.90;;;;;;5013196;28;20117;-74
2023/05/25 12:47:21;;;;;;;14.65;3.88;;;19.30;99.90;;;;;;5013557;28;20045;-75